sensor_id;sensor_type;location;lat;lon;timestamp;P1;durP1;ratioP1;P2;durP2;ratioP2
36931;SDS011;22847;42.654;23.370;2023-01-01T00:00:08;239.25;;;106.55;;
36931;SDS011;22847;42.654;23.370;2023-01-01T00:02:34;233.98;;;105.18;;
36931;SDS011;22847;42.654;23.370;2023-01-01T00:04:59;151.02;;;73.95;;
36931;SDS011;22847;42.654;23.370;2023-01-01T00:07:25;161.35;;;75.03;;
36931;SDS011;22847;42.654;23.370;2023-01-01T00:09:50;145.77;;;71.35;;
36931;SDS011;22847;42.654;23.370;2023-01-01T00:12:34;132.85;;;59.17;;
36931;SDS011;22847;42.654;23.370;2023-01-01T00:14:59;116.18;;;53.97;;
36931;SDS011;22847;42.654;23.370;2023-01-01T00:17:24;134.38;;;64.43;;
36931;SDS011;22847;42.654;23.370;2023-01-01T00:19:50;125.15;;;62.17;;
36931;SDS011;22847;42.654;23.370;2023-01-01T00:22:16;180.70;;;85.07;;
36931;SDS011;22847;42.654;23.370;2023-01-01T00:24:41;164.65;;;81.68;;
36931;SDS011;22847;42.654;23.370;2023-01-01T00:27:07;174.80;;;83.90;;
36931;SDS011;22847;42.654;23.370;2023-01-01T00:29:32;179.93;;;84.00;;
36931;SDS011;22847;42.654;23.370;2023-01-01T00:31:58;156.52;;;80.35;;
36931;SDS011;22847;42.654;23.370;2023-01-01T00:34:23;177.18;;;85.50;;
36931;SDS011;22847;42.654;23.370;2023-01-01T00:36:48;176.23;;;83.18;;
36931;SDS011;22847;42.654;23.370;2023-01-01T00:39:14;168.73;;;80.82;;
36931;SDS011;22847;42.654;23.370;2023-01-01T00:41:39;171.00;;;84.25;;
36931;SDS011;22847;42.654;23.370;2023-01-01T00:44:04;169.23;;;81.47;;
36931;SDS011;22847;42.654;23.370;2023-01-01T00:46:30;160.07;;;77.57;;
36931;SDS011;22847;42.654;23.370;2023-01-01T00:48:55;186.30;;;84.95;;
36931;SDS011;22847;42.654;23.370;2023-01-01T00:51:21;183.80;;;83.20;;
36931;SDS011;22847;42.654;23.370;2023-01-01T00:53:46;182.60;;;83.05;;
36931;SDS011;22847;42.654;23.370;2023-01-01T00:56:11;162.25;;;78.22;;
36931;SDS011;22847;42.654;23.370;2023-01-01T00:58:37;70.90;;;38.65;;
36931;SDS011;22847;42.654;23.370;2023-01-01T01:01:02;111.15;;;50.55;;
36931;SDS011;22847;42.654;23.370;2023-01-01T01:03:28;124.63;;;59.80;;
36931;SDS011;22847;42.654;23.370;2023-01-01T01:08:26;92.10;;;44.00;;
36931;SDS011;22847;42.654;23.370;2023-01-01T01:10:52;57.28;;;26.77;;
36931;SDS011;22847;42.654;23.370;2023-01-01T01:13:18;49.38;;;23.02;;
36931;SDS011;22847;42.654;23.370;2023-01-01T01:15:44;51.63;;;22.95;;
36931;SDS011;22847;42.654;23.370;2023-01-01T01:18:10;31.88;;;17.55;;
36931;SDS011;22847;42.654;23.370;2023-01-01T01:20:35;34.92;;;16.63;;
36931;SDS011;22847;42.654;23.370;2023-01-01T01:23:00;35.53;;;17.70;;
36931;SDS011;22847;42.654;23.370;2023-01-01T01:25:26;26.70;;;13.93;;
36931;SDS011;22847;42.654;23.370;2023-01-01T01:27:51;30.55;;;17.08;;
36931;SDS011;22847;42.654;23.370;2023-01-01T01:30:17;26.33;;;15.02;;
36931;SDS011;22847;42.654;23.370;2023-01-01T01:32:42;35.40;;;17.15;;
36931;SDS011;22847;42.654;23.370;2023-01-01T01:35:08;44.45;;;20.50;;
36931;SDS011;22847;42.654;23.370;2023-01-01T01:37:33;43.53;;;22.92;;
36931;SDS011;22847;42.654;23.370;2023-01-01T01:39:59;60.97;;;29.70;;
36931;SDS011;22847;42.654;23.370;2023-01-01T01:42:24;76.03;;;33.58;;
36931;SDS011;22847;42.654;23.370;2023-01-01T01:49:51;83.68;;;43.08;;
36931;SDS011;22847;42.654;23.370;2023-01-01T01:52:25;80.88;;;38.85;;
36931;SDS011;22847;42.654;23.370;2023-01-01T01:54:52;89.93;;;39.30;;
36931;SDS011;22847;42.654;23.370;2023-01-01T01:57:19;63.58;;;29.95;;
36931;SDS011;22847;42.654;23.370;2023-01-01T01:59:47;44.78;;;21.55;;
36931;SDS011;22847;42.654;23.370;2023-01-01T02:02:26;35.15;;;17.23;;
36931;SDS011;22847;42.654;23.370;2023-01-01T02:04:56;40.20;;;19.35;;
36931;SDS011;22847;42.654;23.370;2023-01-01T02:07:22;57.58;;;29.58;;
36931;SDS011;22847;42.654;23.370;2023-01-01T02:09:49;46.10;;;20.38;;
36931;SDS011;22847;42.654;23.370;2023-01-01T02:12:15;44.05;;;22.60;;
36931;SDS011;22847;42.654;23.370;2023-01-01T02:14:58;66.75;;;29.83;;
36931;SDS011;22847;42.654;23.370;2023-01-01T02:17:31;46.92;;;24.08;;
36931;SDS011;22847;42.654;23.370;2023-01-01T02:20:10;42.22;;;21.23;;
36931;SDS011;22847;42.654;23.370;2023-01-01T02:22:55;37.25;;;18.77;;
36931;SDS011;22847;42.654;23.370;2023-01-01T02:31:23;68.72;;;31.67;;
36931;SDS011;22847;42.654;23.370;2023-01-01T02:34:00;89.38;;;42.05;;
36931;SDS011;22847;42.654;23.370;2023-01-01T02:36:30;117.88;;;49.85;;
36931;SDS011;22847;42.654;23.370;2023-01-01T02:38:58;115.72;;;53.13;;
36931;SDS011;22847;42.654;23.370;2023-01-01T02:41:30;122.40;;;56.90;;
36931;SDS011;22847;42.654;23.370;2023-01-01T02:44:03;134.10;;;59.25;;
36931;SDS011;22847;42.654;23.370;2023-01-01T02:46:32;141.30;;;63.90;;
36931;SDS011;22847;42.654;23.370;2023-01-01T02:48:58;132.10;;;60.33;;
36931;SDS011;22847;42.654;23.370;2023-01-01T02:56:50;129.05;;;60.25;;
36931;SDS011;22847;42.654;23.370;2023-01-01T03:02:14;118.53;;;53.70;;
36931;SDS011;22847;42.654;23.370;2023-01-01T03:05:10;112.03;;;48.95;;
36931;SDS011;22847;42.654;23.370;2023-01-01T03:13:13;70.75;;;33.00;;
36931;SDS011;22847;42.654;23.370;2023-01-01T03:15:56;70.55;;;33.05;;
36931;SDS011;22847;42.654;23.370;2023-01-01T03:18:28;72.50;;;32.97;;
36931;SDS011;22847;42.654;23.370;2023-01-01T03:20:59;69.22;;;34.63;;
36931;SDS011;22847;42.654;23.370;2023-01-01T03:23:33;88.10;;;39.47;;
36931;SDS011;22847;42.654;23.370;2023-01-01T03:26:09;91.45;;;41.78;;
36931;SDS011;22847;42.654;23.370;2023-01-01T03:28:49;89.85;;;41.92;;
36931;SDS011;22847;42.654;23.370;2023-01-01T03:31:23;96.50;;;43.95;;
36931;SDS011;22847;42.654;23.370;2023-01-01T03:34:00;86.25;;;39.35;;
36931;SDS011;22847;42.654;23.370;2023-01-01T03:36:31;116.07;;;54.60;;
36931;SDS011;22847;42.654;23.370;2023-01-01T03:39:04;116.38;;;53.65;;
36931;SDS011;22847;42.654;23.370;2023-01-01T03:41:36;96.43;;;43.88;;
36931;SDS011;22847;42.654;23.370;2023-01-01T03:46:35;100.07;;;47.35;;
36931;SDS011;22847;42.654;23.370;2023-01-01T03:49:01;100.78;;;47.88;;
36931;SDS011;22847;42.654;23.370;2023-01-01T03:56:57;85.93;;;43.92;;
36931;SDS011;22847;42.654;23.370;2023-01-01T03:59:48;80.32;;;37.58;;
36931;SDS011;22847;42.654;23.370;2023-01-01T04:02:16;45.92;;;23.20;;
36931;SDS011;22847;42.654;23.370;2023-01-01T04:04:46;38.35;;;19.55;;
36931;SDS011;22847;42.654;23.370;2023-01-01T04:07:13;31.30;;;15.63;;
36931;SDS011;22847;42.654;23.370;2023-01-01T04:09:39;41.08;;;18.65;;
36931;SDS011;22847;42.654;23.370;2023-01-01T04:12:07;55.10;;;23.38;;
36931;SDS011;22847;42.654;23.370;2023-01-01T04:14:39;68.80;;;31.75;;
36931;SDS011;22847;42.654;23.370;2023-01-01T04:17:05;62.42;;;28.80;;
36931;SDS011;22847;42.654;23.370;2023-01-01T04:19:33;55.70;;;25.20;;
36931;SDS011;22847;42.654;23.370;2023-01-01T04:21:58;64.93;;;32.00;;
36931;SDS011;22847;42.654;23.370;2023-01-01T04:24:24;51.80;;;26.25;;
36931;SDS011;22847;42.654;23.370;2023-01-01T04:26:51;53.40;;;24.05;;
36931;SDS011;22847;42.654;23.370;2023-01-01T04:29:17;70.95;;;32.08;;
36931;SDS011;22847;42.654;23.370;2023-01-01T04:31:43;79.47;;;32.80;;
36931;SDS011;22847;42.654;23.370;2023-01-01T04:34:09;33.72;;;16.73;;
36931;SDS011;22847;42.654;23.370;2023-01-01T04:36:34;28.33;;;13.93;;
36931;SDS011;22847;42.654;23.370;2023-01-01T04:39:00;28.20;;;16.20;;
36931;SDS011;22847;42.654;23.370;2023-01-01T04:41:26;28.60;;;13.27;;
36931;SDS011;22847;42.654;23.370;2023-01-01T04:43:51;26.42;;;13.65;;
36931;SDS011;22847;42.654;23.370;2023-01-01T04:46:17;26.25;;;13.18;;
36931;SDS011;22847;42.654;23.370;2023-01-01T04:48:44;25.63;;;13.32;;
36931;SDS011;22847;42.654;23.370;2023-01-01T04:51:11;23.73;;;12.95;;
36931;SDS011;22847;42.654;23.370;2023-01-01T04:53:38;27.98;;;14.13;;
36931;SDS011;22847;42.654;23.370;2023-01-01T04:56:05;33.90;;;16.92;;
36931;SDS011;22847;42.654;23.370;2023-01-01T04:58:32;38.45;;;19.85;;
36931;SDS011;22847;42.654;23.370;2023-01-01T05:00:58;29.40;;;15.85;;
36931;SDS011;22847;42.654;23.370;2023-01-01T05:03:23;43.67;;;17.75;;
36931;SDS011;22847;42.654;23.370;2023-01-01T05:06:02;43.13;;;20.80;;
36931;SDS011;22847;42.654;23.370;2023-01-01T05:08:33;51.30;;;24.25;;
36931;SDS011;22847;42.654;23.370;2023-01-01T05:11:04;48.25;;;22.63;;
36931;SDS011;22847;42.654;23.370;2023-01-01T05:13:31;40.70;;;18.80;;
36931;SDS011;22847;42.654;23.370;2023-01-01T05:16:00;35.92;;;18.02;;
36931;SDS011;22847;42.654;23.370;2023-01-01T05:18:27;31.60;;;16.77;;
36931;SDS011;22847;42.654;23.370;2023-01-01T05:20:53;26.88;;;14.43;;
36931;SDS011;22847;42.654;23.370;2023-01-01T05:23:23;31.80;;;14.60;;
36931;SDS011;22847;42.654;23.370;2023-01-01T05:25:49;28.50;;;14.82;;
36931;SDS011;22847;42.654;23.370;2023-01-01T05:28:14;28.25;;;14.45;;
36931;SDS011;22847;42.654;23.370;2023-01-01T05:30:39;26.20;;;13.55;;
36931;SDS011;22847;42.654;23.370;2023-01-01T05:33:05;24.55;;;14.00;;
36931;SDS011;22847;42.654;23.370;2023-01-01T05:35:30;24.00;;;12.27;;
36931;SDS011;22847;42.654;23.370;2023-01-01T05:37:56;23.83;;;12.15;;
36931;SDS011;22847;42.654;23.370;2023-01-01T05:40:21;25.33;;;12.50;;
36931;SDS011;22847;42.654;23.370;2023-01-01T05:42:46;26.48;;;11.88;;
36931;SDS011;22847;42.654;23.370;2023-01-01T05:45:12;29.73;;;13.93;;
36931;SDS011;22847;42.654;23.370;2023-01-01T05:47:37;26.67;;;14.15;;
36931;SDS011;22847;42.654;23.370;2023-01-01T05:50:03;38.22;;;17.85;;
36931;SDS011;22847;42.654;23.370;2023-01-01T05:52:29;63.95;;;29.13;;
36931;SDS011;22847;42.654;23.370;2023-01-01T05:54:54;80.10;;;32.83;;
36931;SDS011;22847;42.654;23.370;2023-01-01T05:57:20;48.45;;;24.48;;
36931;SDS011;22847;42.654;23.370;2023-01-01T05:59:45;88.82;;;41.03;;
36931;SDS011;22847;42.654;23.370;2023-01-01T06:02:10;100.10;;;46.17;;
36931;SDS011;22847;42.654;23.370;2023-01-01T06:04:36;97.78;;;46.63;;
36931;SDS011;22847;42.654;23.370;2023-01-01T06:07:01;96.95;;;48.17;;
36931;SDS011;22847;42.654;23.370;2023-01-01T06:09:26;103.97;;;48.95;;
36931;SDS011;22847;42.654;23.370;2023-01-01T06:11:52;99.05;;;46.70;;
36931;SDS011;22847;42.654;23.370;2023-01-01T06:14:17;86.43;;;42.25;;
36931;SDS011;22847;42.654;23.370;2023-01-01T06:16:43;69.40;;;32.88;;
36931;SDS011;22847;42.654;23.370;2023-01-01T06:19:08;65.07;;;30.10;;
36931;SDS011;22847;42.654;23.370;2023-01-01T06:21:33;60.63;;;27.90;;
36931;SDS011;22847;42.654;23.370;2023-01-01T06:23:59;59.47;;;24.15;;
36931;SDS011;22847;42.654;23.370;2023-01-01T06:26:26;55.05;;;26.95;;
36931;SDS011;22847;42.654;23.370;2023-01-01T06:28:54;60.90;;;26.70;;
36931;SDS011;22847;42.654;23.370;2023-01-01T06:31:20;59.13;;;26.75;;
36931;SDS011;22847;42.654;23.370;2023-01-01T06:33:46;61.33;;;28.27;;
36931;SDS011;22847;42.654;23.370;2023-01-01T06:36:13;60.88;;;27.58;;
36931;SDS011;22847;42.654;23.370;2023-01-01T06:38:41;47.22;;;25.67;;
36931;SDS011;22847;42.654;23.370;2023-01-01T06:41:15;54.45;;;26.58;;
36931;SDS011;22847;42.654;23.370;2023-01-01T06:43:44;43.45;;;21.95;;
36931;SDS011;22847;42.654;23.370;2023-01-01T06:46:15;27.10;;;14.77;;
36931;SDS011;22847;42.654;23.370;2023-01-01T06:48:44;43.97;;;23.88;;
36931;SDS011;22847;42.654;23.370;2023-01-01T06:51:11;40.83;;;22.55;;
36931;SDS011;22847;42.654;23.370;2023-01-01T06:53:57;50.22;;;24.98;;
36931;SDS011;22847;42.654;23.370;2023-01-01T06:56:24;44.78;;;24.88;;
36931;SDS011;22847;42.654;23.370;2023-01-01T06:58:50;51.80;;;27.48;;
36931;SDS011;22847;42.654;23.370;2023-01-01T07:01:16;50.60;;;28.83;;
36931;SDS011;22847;42.654;23.370;2023-01-01T07:03:48;45.90;;;26.02;;
36931;SDS011;22847;42.654;23.370;2023-01-01T07:06:21;50.22;;;27.85;;
36931;SDS011;22847;42.654;23.370;2023-01-01T07:08:47;50.33;;;28.00;;
36931;SDS011;22847;42.654;23.370;2023-01-01T07:11:12;53.63;;;30.83;;
36931;SDS011;22847;42.654;23.370;2023-01-01T07:13:38;58.35;;;32.17;;
36931;SDS011;22847;42.654;23.370;2023-01-01T07:16:03;61.72;;;35.28;;
36931;SDS011;22847;42.654;23.370;2023-01-01T07:18:30;62.40;;;34.85;;
36931;SDS011;22847;42.654;23.370;2023-01-01T07:20:57;60.05;;;34.58;;
36931;SDS011;22847;42.654;23.370;2023-01-01T07:23:25;57.08;;;34.33;;
36931;SDS011;22847;42.654;23.370;2023-01-01T07:25:52;61.97;;;35.60;;
36931;SDS011;22847;42.654;23.370;2023-01-01T07:28:18;67.45;;;38.38;;
36931;SDS011;22847;42.654;23.370;2023-01-01T07:30:44;63.22;;;37.92;;
36931;SDS011;22847;42.654;23.370;2023-01-01T07:33:10;52.05;;;32.97;;
36931;SDS011;22847;42.654;23.370;2023-01-01T07:35:38;49.67;;;28.65;;
36931;SDS011;22847;42.654;23.370;2023-01-01T07:38:04;39.80;;;23.88;;
36931;SDS011;22847;42.654;23.370;2023-01-01T07:40:29;31.30;;;19.73;;
36931;SDS011;22847;42.654;23.370;2023-01-01T07:42:55;26.48;;;15.95;;
36931;SDS011;22847;42.654;23.370;2023-01-01T07:45:20;27.08;;;14.75;;
36931;SDS011;22847;42.654;23.370;2023-01-01T07:47:49;26.20;;;15.93;;
36931;SDS011;22847;42.654;23.370;2023-01-01T07:50:18;41.17;;;24.73;;
36931;SDS011;22847;42.654;23.370;2023-01-01T07:52:44;42.67;;;25.45;;
36931;SDS011;22847;42.654;23.370;2023-01-01T07:55:13;41.83;;;23.73;;
36931;SDS011;22847;42.654;23.370;2023-01-01T07:57:40;41.65;;;24.60;;
36931;SDS011;22847;42.654;23.370;2023-01-01T08:00:07;44.00;;;26.88;;
36931;SDS011;22847;42.654;23.370;2023-01-01T08:02:33;51.42;;;28.45;;
36931;SDS011;22847;42.654;23.370;2023-01-01T08:04:59;51.00;;;30.75;;
36931;SDS011;22847;42.654;23.370;2023-01-01T08:07:24;67.43;;;39.78;;
36931;SDS011;22847;42.654;23.370;2023-01-01T08:09:49;70.00;;;41.75;;
36931;SDS011;22847;42.654;23.370;2023-01-01T08:12:15;76.47;;;45.58;;
36931;SDS011;22847;42.654;23.370;2023-01-01T08:14:40;89.28;;;54.33;;
36931;SDS011;22847;42.654;23.370;2023-01-01T08:17:05;91.72;;;51.95;;
36931;SDS011;22847;42.654;23.370;2023-01-01T08:19:31;95.57;;;54.33;;
36931;SDS011;22847;42.654;23.370;2023-01-01T08:21:56;96.78;;;55.55;;
36931;SDS011;22847;42.654;23.370;2023-01-01T08:24:21;104.63;;;55.28;;
36931;SDS011;22847;42.654;23.370;2023-01-01T08:26:47;103.78;;;58.13;;
36931;SDS011;22847;42.654;23.370;2023-01-01T08:29:14;111.93;;;60.75;;
36931;SDS011;22847;42.654;23.370;2023-01-01T08:31:40;108.95;;;60.67;;
36931;SDS011;22847;42.654;23.370;2023-01-01T08:34:05;110.50;;;59.20;;
36931;SDS011;22847;42.654;23.370;2023-01-01T08:36:31;106.65;;;58.72;;
36931;SDS011;22847;42.654;23.370;2023-01-01T08:38:56;115.60;;;62.45;;
36931;SDS011;22847;42.654;23.370;2023-01-01T08:41:22;110.60;;;59.55;;
36931;SDS011;22847;42.654;23.370;2023-01-01T08:43:47;106.80;;;57.60;;
36931;SDS011;22847;42.654;23.370;2023-01-01T08:46:13;111.50;;;61.13;;
36931;SDS011;22847;42.654;23.370;2023-01-01T08:48:38;105.47;;;58.83;;
36931;SDS011;22847;42.654;23.370;2023-01-01T08:51:04;106.68;;;58.25;;
36931;SDS011;22847;42.654;23.370;2023-01-01T08:53:29;105.78;;;57.20;;
36931;SDS011;22847;42.654;23.370;2023-01-01T08:58:25;95.15;;;54.95;;
36931;SDS011;22847;42.654;23.370;2023-01-01T09:00:52;89.97;;;53.10;;
36931;SDS011;22847;42.654;23.370;2023-01-01T09:03:17;97.10;;;54.05;;
36931;SDS011;22847;42.654;23.370;2023-01-01T09:05:43;90.35;;;50.90;;
36931;SDS011;22847;42.654;23.370;2023-01-01T09:08:12;89.85;;;52.10;;
36931;SDS011;22847;42.654;23.370;2023-01-01T09:10:39;97.63;;;56.35;;
36931;SDS011;22847;42.654;23.370;2023-01-01T09:13:05;87.05;;;48.55;;
36931;SDS011;22847;42.654;23.370;2023-01-01T09:15:30;84.05;;;48.60;;
36931;SDS011;22847;42.654;23.370;2023-01-01T09:17:56;79.15;;;48.45;;
36931;SDS011;22847;42.654;23.370;2023-01-01T09:20:21;77.57;;;48.33;;
36931;SDS011;22847;42.654;23.370;2023-01-01T09:22:46;84.90;;;49.00;;
36931;SDS011;22847;42.654;23.370;2023-01-01T09:25:12;79.78;;;46.78;;
36931;SDS011;22847;42.654;23.370;2023-01-01T09:27:37;78.38;;;46.00;;
36931;SDS011;22847;42.654;23.370;2023-01-01T09:30:03;76.00;;;45.70;;
36931;SDS011;22847;42.654;23.370;2023-01-01T09:32:29;83.63;;;49.05;;
36931;SDS011;22847;42.654;23.370;2023-01-01T09:34:54;76.88;;;47.35;;
36931;SDS011;22847;42.654;23.370;2023-01-01T09:37:21;81.03;;;47.92;;
36931;SDS011;22847;42.654;23.370;2023-01-01T09:39:47;81.15;;;48.67;;
36931;SDS011;22847;42.654;23.370;2023-01-01T09:47:42;81.20;;;49.15;;
36931;SDS011;22847;42.654;23.370;2023-01-01T09:50:12;77.80;;;49.38;;
36931;SDS011;22847;42.654;23.370;2023-01-01T09:52:51;84.50;;;48.47;;
36931;SDS011;22847;42.654;23.370;2023-01-01T09:55:21;82.97;;;46.92;;
36931;SDS011;22847;42.654;23.370;2023-01-01T09:57:51;76.30;;;47.80;;
36931;SDS011;22847;42.654;23.370;2023-01-01T10:00:18;78.78;;;48.88;;
36931;SDS011;22847;42.654;23.370;2023-01-01T10:07:50;78.13;;;48.00;;
36931;SDS011;22847;42.654;23.370;2023-01-01T10:13:26;78.95;;;46.25;;
36931;SDS011;22847;42.654;23.370;2023-01-01T10:16:00;87.72;;;47.58;;
36931;SDS011;22847;42.654;23.370;2023-01-01T10:18:32;73.57;;;43.90;;
36931;SDS011;22847;42.654;23.370;2023-01-01T10:21:17;81.28;;;45.63;;
36931;SDS011;22847;42.654;23.370;2023-01-01T10:23:54;76.63;;;44.13;;
36931;SDS011;22847;42.654;23.370;2023-01-01T10:26:25;69.78;;;43.15;;
36931;SDS011;22847;42.654;23.370;2023-01-01T10:31:33;70.72;;;40.35;;
36931;SDS011;22847;42.654;23.370;2023-01-01T10:36:55;70.63;;;40.55;;
36931;SDS011;22847;42.654;23.370;2023-01-01T10:39:22;64.93;;;38.75;;
36931;SDS011;22847;42.654;23.370;2023-01-01T10:41:48;65.07;;;38.97;;
36931;SDS011;22847;42.654;23.370;2023-01-01T10:44:15;73.30;;;41.33;;
36931;SDS011;22847;42.654;23.370;2023-01-01T10:46:52;71.43;;;40.17;;
36931;SDS011;22847;42.654;23.370;2023-01-01T10:49:21;66.53;;;39.40;;
36931;SDS011;22847;42.654;23.370;2023-01-01T10:51:48;64.95;;;38.25;;
36931;SDS011;22847;42.654;23.370;2023-01-01T10:56:49;60.47;;;37.45;;
36931;SDS011;22847;42.654;23.370;2023-01-01T11:02:17;65.35;;;38.17;;
36931;SDS011;22847;42.654;23.370;2023-01-01T11:04:50;55.88;;;35.65;;
36931;SDS011;22847;42.654;23.370;2023-01-01T11:07:34;58.72;;;35.45;;
36931;SDS011;22847;42.654;23.370;2023-01-01T11:10:01;60.00;;;36.53;;
36931;SDS011;22847;42.654;23.370;2023-01-01T11:12:32;58.97;;;36.05;;
36931;SDS011;22847;42.654;23.370;2023-01-01T11:14:59;57.70;;;34.05;;
36931;SDS011;22847;42.654;23.370;2023-01-01T11:17:29;57.08;;;34.83;;
36931;SDS011;22847;42.654;23.370;2023-01-01T11:19:57;52.17;;;33.22;;
36931;SDS011;22847;42.654;23.370;2023-01-01T11:22:43;56.70;;;33.70;;
36931;SDS011;22847;42.654;23.370;2023-01-01T11:25:22;67.10;;;36.83;;
36931;SDS011;22847;42.654;23.370;2023-01-01T11:27:49;57.45;;;34.33;;
36931;SDS011;22847;42.654;23.370;2023-01-01T11:30:19;56.15;;;33.83;;
36931;SDS011;22847;42.654;23.370;2023-01-01T11:32:46;57.42;;;34.10;;
36931;SDS011;22847;42.654;23.370;2023-01-01T11:35:16;59.50;;;34.78;;
36931;SDS011;22847;42.654;23.370;2023-01-01T11:37:44;60.28;;;34.28;;
36931;SDS011;22847;42.654;23.370;2023-01-01T11:40:23;65.72;;;34.03;;
36931;SDS011;22847;42.654;23.370;2023-01-01T11:42:52;56.45;;;33.42;;
36931;SDS011;22847;42.654;23.370;2023-01-01T11:45:25;57.92;;;34.15;;
36931;SDS011;22847;42.654;23.370;2023-01-01T11:47:57;63.28;;;34.20;;
36931;SDS011;22847;42.654;23.370;2023-01-01T11:50:26;60.85;;;33.85;;
36931;SDS011;22847;42.654;23.370;2023-01-01T11:52:55;61.85;;;33.10;;
36931;SDS011;22847;42.654;23.370;2023-01-01T11:55:34;60.60;;;32.28;;
36931;SDS011;22847;42.654;23.370;2023-01-01T11:58:17;56.85;;;32.33;;
36931;SDS011;22847;42.654;23.370;2023-01-01T12:00:50;58.22;;;33.47;;
36931;SDS011;22847;42.654;23.370;2023-01-01T12:11:16;49.75;;;28.45;;
36931;SDS011;22847;42.654;23.370;2023-01-01T12:13:50;50.97;;;30.63;;
36931;SDS011;22847;42.654;23.370;2023-01-01T12:16:23;51.33;;;29.38;;
36931;SDS011;22847;42.654;23.370;2023-01-01T12:22:04;54.47;;;29.52;;
36931;SDS011;22847;42.654;23.370;2023-01-01T12:24:38;52.35;;;29.25;;
36931;SDS011;22847;42.654;23.370;2023-01-01T12:38:03;50.00;;;29.73;;
36931;SDS011;22847;42.654;23.370;2023-01-01T12:43:26;57.22;;;31.95;;
36931;SDS011;22847;42.654;23.370;2023-01-01T12:48:43;57.00;;;31.88;;
36931;SDS011;22847;42.654;23.370;2023-01-01T12:57:25;53.53;;;30.00;;
36931;SDS011;22847;42.654;23.370;2023-01-01T12:59:40;51.60;;;29.00;;
36931;SDS011;22847;42.654;23.370;2023-01-01T13:02:20;49.60;;;27.85;;
36931;SDS011;22847;42.654;23.370;2023-01-01T13:04:49;56.33;;;29.67;;
36931;SDS011;22847;42.654;23.370;2023-01-01T13:07:20;51.08;;;29.25;;
36931;SDS011;22847;42.654;23.370;2023-01-01T13:09:52;53.33;;;29.25;;
36931;SDS011;22847;42.654;23.370;2023-01-01T13:12:18;50.63;;;30.23;;
36931;SDS011;22847;42.654;23.370;2023-01-01T13:14:48;54.58;;;31.27;;
36931;SDS011;22847;42.654;23.370;2023-01-01T13:17:32;49.47;;;29.90;;
36931;SDS011;22847;42.654;23.370;2023-01-01T13:19:58;49.28;;;28.67;;
36931;SDS011;22847;42.654;23.370;2023-01-01T13:22:39;52.75;;;28.73;;
36931;SDS011;22847;42.654;23.370;2023-01-01T14:00:21;49.63;;;26.50;;
36931;SDS011;22847;42.654;23.370;2023-01-01T14:03:00;49.13;;;25.50;;
36931;SDS011;22847;42.654;23.370;2023-01-01T14:05:36;48.85;;;25.63;;
36931;SDS011;22847;42.654;23.370;2023-01-01T14:10:50;56.38;;;26.45;;
36931;SDS011;22847;42.654;23.370;2023-01-01T14:13:16;53.30;;;26.83;;
36931;SDS011;22847;42.654;23.370;2023-01-01T14:16:03;58.53;;;28.15;;
36931;SDS011;22847;42.654;23.370;2023-01-01T14:18:47;52.47;;;28.63;;
36931;SDS011;22847;42.654;23.370;2023-01-01T14:21:33;53.58;;;29.35;;
36931;SDS011;22847;42.654;23.370;2023-01-01T14:24:03;55.22;;;28.65;;
36931;SDS011;22847;42.654;23.370;2023-01-01T14:26:31;57.42;;;29.42;;
36931;SDS011;22847;42.654;23.370;2023-01-01T14:28:58;61.08;;;29.83;;
36931;SDS011;22847;42.654;23.370;2023-01-01T14:31:30;52.70;;;28.58;;
36931;SDS011;22847;42.654;23.370;2023-01-01T14:34:00;49.70;;;28.27;;
36931;SDS011;22847;42.654;23.370;2023-01-01T14:36:27;55.55;;;28.02;;
36931;SDS011;22847;42.654;23.370;2023-01-01T14:38:56;51.63;;;27.45;;
36931;SDS011;22847;42.654;23.370;2023-01-01T14:41:34;52.60;;;28.33;;
36931;SDS011;22847;42.654;23.370;2023-01-01T14:44:06;53.25;;;29.05;;
36931;SDS011;22847;42.654;23.370;2023-01-01T14:46:40;54.78;;;30.02;;
36931;SDS011;22847;42.654;23.370;2023-01-01T14:49:09;46.40;;;26.50;;
36931;SDS011;22847;42.654;23.370;2023-01-01T14:51:40;56.03;;;28.42;;
36931;SDS011;22847;42.654;23.370;2023-01-01T14:54:10;47.85;;;26.10;;
36931;SDS011;22847;42.654;23.370;2023-01-01T14:56:42;51.75;;;27.67;;
36931;SDS011;22847;42.654;23.370;2023-01-01T15:01:36;50.85;;;26.15;;
36931;SDS011;22847;42.654;23.370;2023-01-01T15:04:04;51.88;;;26.33;;
36931;SDS011;22847;42.654;23.370;2023-01-01T15:06:42;45.42;;;24.77;;
36931;SDS011;22847;42.654;23.370;2023-01-01T15:09:12;47.70;;;25.90;;
36931;SDS011;22847;42.654;23.370;2023-01-01T15:11:40;55.47;;;27.27;;
36931;SDS011;22847;42.654;23.370;2023-01-01T15:14:26;48.80;;;25.42;;
36931;SDS011;22847;42.654;23.370;2023-01-01T15:17:03;52.20;;;24.75;;
36931;SDS011;22847;42.654;23.370;2023-01-01T15:19:34;49.17;;;25.42;;
36931;SDS011;22847;42.654;23.370;2023-01-01T15:22:06;47.92;;;25.23;;
36931;SDS011;22847;42.654;23.370;2023-01-01T15:24:34;48.53;;;25.90;;
36931;SDS011;22847;42.654;23.370;2023-01-01T15:27:05;52.67;;;26.60;;
36931;SDS011;22847;42.654;23.370;2023-01-01T15:29:35;47.60;;;26.95;;
36931;SDS011;22847;42.654;23.370;2023-01-01T15:32:09;53.78;;;28.50;;
36931;SDS011;22847;42.654;23.370;2023-01-01T15:37:30;46.63;;;25.38;;
36931;SDS011;22847;42.654;23.370;2023-01-01T15:39:58;48.40;;;26.23;;
36931;SDS011;22847;42.654;23.370;2023-01-01T15:42:30;50.45;;;27.08;;
36931;SDS011;22847;42.654;23.370;2023-01-01T15:45:13;49.22;;;26.58;;
36931;SDS011;22847;42.654;23.370;2023-01-01T15:47:39;50.72;;;26.30;;
36931;SDS011;22847;42.654;23.370;2023-01-01T15:50:08;47.78;;;26.58;;
36931;SDS011;22847;42.654;23.370;2023-01-01T15:52:34;48.28;;;27.60;;
36931;SDS011;22847;42.654;23.370;2023-01-01T15:55:01;48.40;;;27.83;;
36931;SDS011;22847;42.654;23.370;2023-01-01T15:57:27;57.90;;;28.35;;
36931;SDS011;22847;42.654;23.370;2023-01-01T15:59:52;57.00;;;29.10;;
36931;SDS011;22847;42.654;23.370;2023-01-01T16:02:20;46.22;;;28.17;;
36931;SDS011;22847;42.654;23.370;2023-01-01T16:04:55;54.65;;;28.60;;
36931;SDS011;22847;42.654;23.370;2023-01-01T16:07:21;52.83;;;28.00;;
36931;SDS011;22847;42.654;23.370;2023-01-01T16:09:49;61.63;;;28.95;;
36931;SDS011;22847;42.654;23.370;2023-01-01T16:12:15;58.30;;;27.58;;
36931;SDS011;22847;42.654;23.370;2023-01-01T16:14:41;58.40;;;27.73;;
36931;SDS011;22847;42.654;23.370;2023-01-01T16:17:14;56.40;;;26.65;;
36931;SDS011;22847;42.654;23.370;2023-01-01T16:19:41;60.25;;;28.38;;
36931;SDS011;22847;42.654;23.370;2023-01-01T16:22:10;59.00;;;28.92;;
36931;SDS011;22847;42.654;23.370;2023-01-01T16:24:40;62.72;;;31.42;;
36931;SDS011;22847;42.654;23.370;2023-01-01T16:27:07;63.53;;;32.50;;
36931;SDS011;22847;42.654;23.370;2023-01-01T16:29:32;66.55;;;33.50;;
36931;SDS011;22847;42.654;23.370;2023-01-01T16:31:58;66.65;;;34.30;;
36931;SDS011;22847;42.654;23.370;2023-01-01T16:34:23;64.82;;;32.45;;